createdAt,value
2018-02-19T00:00:00.643Z,22.7
2018-02-19T00:01:00.629Z,22.8
2018-02-19T00:02:00.577Z,22.9
2018-02-19T00:03:00.810Z,22.9
2018-02-19T00:04:00.364Z,22.8
2018-02-19T00:05:00.282Z,22.9
2018-02-19T00:06:00.262Z,22.9
2018-02-19T00:07:00.132Z,22.9
2018-02-19T00:08:00.046Z,22.8
2018-02-19T00:08:59.973Z,22.7
2018-02-19T00:09:59.889Z,22.6
2018-02-19T00:10:59.785Z,22.6
2018-02-19T00:12:00.059Z,22.5
2018-02-19T00:12:59.810Z,22.5
2018-02-19T00:13:59.572Z,22.4
2018-02-19T00:14:59.556Z,22.5
2018-02-19T00:15:59.422Z,22.5
2018-02-19T00:16:59.459Z,22.5
2018-02-19T00:17:59.303Z,22.6
2018-02-19T00:18:59.157Z,22.6
2018-02-19T00:19:59.128Z,22.7
2018-02-19T00:20:59.144Z,22.8
2018-02-19T00:21:58.950Z,22.9
2018-02-19T00:22:58.907Z,22.9
2018-02-19T00:23:58.766Z,22.9
2018-02-19T00:24:58.720Z,22.8
2018-02-19T00:25:58.749Z,22.9
2018-02-19T00:26:58.866Z,22.9
2018-02-19T00:27:58.484Z,22.9
2018-02-19T00:28:58.730Z,22.8
2018-02-19T00:29:58.332Z,22.7
2018-02-19T00:30:58.220Z,22.6
2018-02-19T00:31:58.270Z,22.5
2018-02-19T00:32:58.443Z,22.4
2018-02-19T00:33:58.162Z,22.4
2018-02-19T00:34:57.906Z,22.4
2018-02-19T00:35:57.966Z,22.4
2018-02-19T00:36:57.782Z,22.4
2018-02-19T00:37:57.993Z,22.5
2018-02-19T00:38:57.658Z,22.6
2018-02-19T00:39:57.521Z,22.6
2018-02-19T00:40:57.758Z,22.7
2018-02-19T00:41:57.470Z,22.8
2018-02-19T00:42:57.313Z,22.9
2018-02-19T00:43:57.340Z,22.9
2018-02-19T00:44:57.163Z,22.8
2018-02-19T00:45:57.056Z,22.8
2018-02-19T00:46:57.029Z,22.9
2018-02-19T00:47:57.225Z,22.9
2018-02-19T00:48:57.019Z,22.9
2018-02-19T00:49:56.732Z,22.8
2018-02-19T00:50:56.723Z,22.6
2018-02-19T00:51:56.578Z,22.5
2018-02-19T00:52:56.562Z,22.4
2018-02-19T00:53:56.449Z,22.4
2018-02-19T00:54:56.402Z,22.4
2018-02-19T00:55:56.269Z,22.4
2018-02-19T00:56:56.213Z,22.4
2018-02-19T00:57:56.433Z,22.4
2018-02-19T00:58:56.169Z,22.5
2018-02-19T00:59:55.986Z,22.5
2018-02-19T01:00:56.051Z,22.6
2018-02-19T01:01:55.820Z,22.6
2018-02-19T01:02:55.748Z,22.7
2018-02-19T01:03:55.706Z,22.8
2018-02-19T01:04:55.562Z,22.9
2018-02-19T01:05:55.830Z,22.8
2018-02-19T01:06:55.415Z,22.8
2018-02-19T01:07:55.359Z,22.8
2018-02-19T01:08:55.277Z,22.9
2018-02-19T01:09:55.208Z,22.9
2018-02-19T01:10:55.088Z,22.8
2018-02-19T01:11:55.078Z,22.7
2018-02-19T01:12:54.931Z,22.6
2018-02-19T01:13:54.922Z,22.4
2018-02-19T01:14:54.809Z,22.4
2018-02-19T01:15:54.725Z,22.4
2018-02-19T01:16:54.631Z,22.3
2018-02-19T01:17:54.753Z,22.4
2018-02-19T01:18:54.491Z,22.4
2018-02-19T01:19:54.527Z,22.4
2018-02-19T01:20:54.385Z,22.4
2018-02-19T01:21:54.317Z,22.5
2018-02-19T01:22:54.263Z,22.6
2018-02-19T01:23:54.361Z,22.6
2018-02-19T01:24:54.066Z,22.6
2018-02-19T01:25:54.250Z,22.7
2018-02-19T01:26:53.984Z,22.8
2018-02-19T01:27:53.787Z,22.9
2018-02-19T01:28:53.681Z,22.9
2018-02-19T01:29:53.955Z,22.8
2018-02-19T01:30:53.563Z,22.8
2018-02-19T01:31:53.474Z,22.9
2018-02-19T01:32:53.366Z,22.9
2018-02-19T01:33:53.366Z,22.9
2018-02-19T01:34:53.278Z,22.8
2018-02-19T01:35:53.165Z,22.6
2018-02-19T01:36:53.082Z,22.5
2018-02-19T01:37:53.298Z,22.4
2018-02-19T01:38:52.926Z,22.4
2018-02-19T01:39:52.888Z,22.4
2018-02-19T01:40:52.745Z,22.4
2018-02-19T01:41:52.978Z,22.4
2018-02-19T01:42:52.614Z,22.4
2018-02-19T01:43:52.539Z,22.4
2018-02-19T01:44:52.492Z,22.4
2018-02-19T01:45:52.347Z,22.5
2018-02-19T01:46:52.298Z,22.5
2018-02-19T01:47:52.223Z,22.6
2018-02-19T01:48:52.302Z,22.6
2018-02-19T01:49:52.136Z,22.6
2018-02-19T01:50:52.047Z,22.7
2018-02-19T01:51:51.912Z,22.8
2018-02-19T01:52:51.938Z,22.9
2018-02-19T01:53:51.773Z,22.9
2018-02-19T01:54:51.718Z,22.8
2018-02-19T01:55:51.580Z,22.9
2018-02-19T01:56:51.573Z,22.9
2018-02-19T01:57:51.477Z,22.9
2018-02-19T01:58:51.422Z,22.8
2018-02-19T01:59:51.371Z,22.7
2018-02-19T02:00:51.267Z,22.6
2018-02-19T02:01:51.195Z,22.5
2018-02-19T02:02:51.443Z,22.4
2018-02-19T02:03:51.057Z,22.4
2018-02-19T02:04:50.958Z,22.3
2018-02-19T02:05:51.074Z,22.3
2018-02-19T02:06:51.109Z,22.4
2018-02-19T02:07:50.888Z,22.4
2018-02-19T02:08:50.823Z,22.4
2018-02-19T02:09:50.751Z,22.4
2018-02-19T02:10:50.580Z,22.5
2018-02-19T02:11:50.540Z,22.6
2018-02-19T02:12:50.409Z,22.6
2018-02-19T02:13:50.376Z,22.6
2018-02-19T02:14:50.340Z,22.6
2018-02-19T02:15:50.204Z,22.8
2018-02-19T02:16:50.316Z,22.8
2018-02-19T02:17:50.069Z,22.9
2018-02-19T02:18:50.024Z,22.9
2018-02-19T02:19:49.966Z,22.8
2018-02-19T02:20:49.991Z,22.9
2018-02-19T02:21:49.836Z,22.9
2018-02-19T02:22:49.716Z,22.9
2018-02-19T02:23:49.715Z,22.8
2018-02-19T02:24:49.630Z,22.7
2018-02-19T02:25:49.549Z,22.6
2018-02-19T02:26:49.476Z,22.4
2018-02-19T02:27:49.552Z,22.4
2018-02-19T02:28:49.303Z,22.4
2018-02-19T02:29:49.318Z,22.3
2018-02-19T02:30:49.214Z,22.4
2018-02-19T02:31:49.238Z,22.3
2018-02-19T02:32:49.100Z,22.4
2018-02-19T02:33:49.254Z,22.4
2018-02-19T02:34:48.892Z,22.4
2018-02-19T02:35:48.893Z,22.5
2018-02-19T02:36:49.084Z,22.5
2018-02-19T02:37:48.738Z,22.5
2018-02-19T02:38:48.644Z,22.6
2018-02-19T02:39:48.549Z,22.6
2018-02-19T02:40:48.664Z,22.6
2018-02-19T02:41:48.552Z,22.7
2018-02-19T02:42:48.663Z,22.8
2018-02-19T02:43:48.561Z,22.9
2018-02-19T02:44:48.270Z,22.9
2018-02-19T02:45:48.258Z,22.8
2018-02-19T02:46:48.206Z,22.8
2018-02-19T02:47:48.030Z,22.9
2018-02-19T02:48:48.257Z,22.9
2018-02-19T02:49:47.890Z,22.8
2018-02-19T02:50:47.788Z,22.6
2018-02-19T02:51:47.784Z,22.5
2018-02-19T02:52:47.747Z,22.4
2018-02-19T02:53:47.627Z,22.4
2018-02-19T02:54:47.565Z,22.3
2018-02-19T02:55:47.443Z,22.3
2018-02-19T02:56:47.445Z,22.3
2018-02-19T02:57:47.445Z,22.3
2018-02-19T02:58:47.379Z,22.4
2018-02-19T02:59:47.199Z,22.4
2018-02-19T03:00:47.130Z,22.4
2018-02-19T03:01:47.063Z,22.5
2018-02-19T03:02:47.027Z,22.5
2018-02-19T03:03:46.981Z,22.5
2018-02-19T03:04:46.858Z,22.6
2018-02-19T03:05:46.833Z,22.6
2018-02-19T03:06:46.714Z,22.6
2018-02-19T03:07:46.938Z,22.7
2018-02-19T03:08:46.724Z,22.8
2018-02-19T03:09:46.782Z,22.9
2018-02-19T03:10:46.504Z,22.9
2018-02-19T03:11:46.406Z,22.9
2018-02-19T03:12:46.367Z,22.8
2018-02-19T03:13:46.267Z,22.9
2018-02-19T03:14:46.146Z,22.9
2018-02-19T03:15:46.200Z,22.9
2018-02-19T03:16:46.028Z,22.8
2018-02-19T03:17:45.957Z,22.6
2018-02-19T03:18:45.979Z,22.5
2018-02-19T03:19:45.789Z,22.4
2018-02-19T03:20:45.783Z,22.4
2018-02-19T03:21:45.649Z,22.3
2018-02-19T03:22:45.718Z,22.3
2018-02-19T03:23:45.544Z,22.3
2018-02-19T03:24:45.506Z,22.3
2018-02-19T03:25:45.393Z,22.3
2018-02-19T03:26:45.630Z,22.4
2018-02-19T03:27:45.281Z,22.4
2018-02-19T03:28:45.250Z,22.4
2018-02-19T03:29:45.164Z,22.5
2018-02-19T03:30:45.032Z,22.5
2018-02-19T03:31:45.051Z,22.6
2018-02-19T03:32:45.072Z,22.7
2018-02-19T03:33:44.853Z,22.8
2018-02-19T03:34:45.089Z,22.9
2018-02-19T03:35:44.716Z,22.9
2018-02-19T03:36:44.711Z,22.9
2018-02-19T03:37:44.612Z,22.9
2018-02-19T03:38:44.512Z,22.9
2018-02-19T03:39:44.549Z,23
2018-02-19T03:40:44.340Z,22.9
2018-02-19T03:41:44.356Z,22.8
2018-02-19T03:42:44.274Z,22.7
2018-02-19T03:43:44.164Z,22.6
2018-02-19T03:44:44.095Z,22.5
2018-02-19T03:45:44.113Z,22.4
2018-02-19T03:46:43.925Z,22.5
2018-02-19T03:47:44.173Z,22.5
2018-02-19T03:48:43.821Z,22.5
2018-02-19T03:49:43.750Z,22.5
2018-02-19T03:50:43.721Z,22.6
2018-02-19T03:51:43.674Z,22.6
2018-02-19T03:52:43.541Z,22.6
2018-02-19T03:53:43.476Z,22.6
2018-02-19T03:54:43.443Z,22.6
2018-02-19T03:55:43.306Z,22.6
2018-02-19T03:56:43.299Z,22.7
2018-02-19T03:57:43.185Z,22.8
2018-02-19T03:58:43.240Z,22.9
2018-02-19T03:59:43.071Z,22.9
2018-02-19T04:00:43.096Z,22.9
2018-02-19T04:01:43.037Z,22.9
2018-02-19T04:02:43.000Z,22.9
2018-02-19T04:03:42.761Z,23
2018-02-19T04:04:42.749Z,22.9
2018-02-19T04:05:42.648Z,22.8
2018-02-19T04:06:42.831Z,22.7
2018-02-19T04:07:42.589Z,22.5
2018-02-19T04:08:42.730Z,22.5
2018-02-19T04:09:42.476Z,22.4
2018-02-19T04:10:42.312Z,22.4
2018-02-19T04:11:42.232Z,22.3
2018-02-19T04:12:42.142Z,22.3
2018-02-19T04:13:42.143Z,22.3
2018-02-19T04:14:42.056Z,22.3
2018-02-19T04:15:42.249Z,22.3
2018-02-19T04:16:41.992Z,22.3
2018-02-19T04:17:41.825Z,22.3
2018-02-19T04:18:41.747Z,22.3
2018-02-19T04:19:41.741Z,22.3
2018-02-19T04:20:41.647Z,22.3
2018-02-19T04:21:41.545Z,22.4
2018-02-19T04:22:41.492Z,22.4
2018-02-19T04:23:41.552Z,22.4
2018-02-19T04:24:41.400Z,22.5
2018-02-19T04:25:41.299Z,22.5
2018-02-19T04:26:41.500Z,22.6
2018-02-19T04:27:41.127Z,22.6
2018-02-19T04:28:41.399Z,22.6
2018-02-19T04:29:41.303Z,22.6
2018-02-19T04:30:41.173Z,22.6
2018-02-19T04:31:40.894Z,22.6
2018-02-19T04:32:41.035Z,22.7
2018-02-19T04:33:40.714Z,22.7
2018-02-19T04:34:40.648Z,22.8
2018-02-19T04:35:40.614Z,22.9
2018-02-19T04:36:40.484Z,23
2018-02-19T04:37:40.554Z,22.9
2018-02-19T04:38:40.386Z,22.9
2018-02-19T04:39:40.304Z,23
2018-02-19T04:40:40.554Z,23.1
2018-02-19T04:41:40.133Z,22.8
2018-02-19T04:42:40.095Z,21.6
2018-02-19T04:43:40.136Z,20.4
2018-02-19T04:44:39.924Z,19.2
2018-02-19T04:45:39.883Z,18.8
2018-02-19T04:46:39.848Z,19.1
2018-02-19T04:47:39.761Z,19.5
2018-02-19T04:48:39.683Z,19.9
2018-02-19T04:49:39.592Z,20.3
2018-02-19T04:50:39.572Z,20.6
2018-02-19T04:51:39.480Z,20.9
2018-02-19T04:52:39.401Z,21.1
2018-02-19T04:53:39.335Z,21.3
2018-02-19T04:54:39.231Z,21.6
2018-02-19T04:55:39.232Z,21.8
2018-02-19T04:56:39.167Z,21.9
2018-02-19T04:57:39.030Z,22.1
2018-02-19T04:58:38.992Z,22.3
2018-02-19T04:59:38.935Z,22.3
2018-02-19T05:00:38.859Z,22.4
2018-02-19T05:01:38.853Z,22.6
2018-02-19T05:02:38.784Z,22.7
2018-02-19T05:03:38.658Z,22.8
2018-02-19T05:04:38.577Z,23
2018-02-19T05:05:38.538Z,23.2
2018-02-19T05:06:38.459Z,23.1
2018-02-19T05:07:38.450Z,23.1
2018-02-19T05:08:38.272Z,23.3
2018-02-19T05:09:38.238Z,23.3
2018-02-19T05:10:38.167Z,23.4
2018-02-19T05:11:38.202Z,23.1
2018-02-19T05:12:38.062Z,23
2018-02-19T05:13:38.015Z,23.1
2018-02-19T05:14:37.919Z,23.1
2018-02-19T05:15:37.886Z,23
2018-02-19T05:16:37.747Z,22.8
2018-02-19T05:17:37.696Z,22.5
2018-02-19T05:18:37.581Z,22.4
2018-02-19T05:19:37.701Z,22.3
2018-02-19T05:20:37.475Z,22.2
2018-02-19T05:21:37.698Z,22.2
2018-02-19T05:22:37.347Z,22.2
2018-02-19T05:23:37.299Z,22.2
2018-02-19T05:24:37.216Z,22.2
2018-02-19T05:25:37.222Z,22.2
2018-02-19T05:26:37.184Z,22.2
2018-02-19T05:27:37.096Z,22.2
2018-02-19T05:28:37.032Z,22.2
2018-02-19T05:29:36.851Z,22.2
2018-02-19T05:30:36.755Z,22.1
2018-02-19T05:31:36.755Z,22.1
2018-02-19T05:32:36.653Z,22.1
2018-02-19T05:33:36.854Z,22.1
2018-02-19T05:34:36.545Z,22.1
2018-02-19T05:35:36.502Z,22
2018-02-19T05:36:36.407Z,22.1
2018-02-19T05:37:36.598Z,22
2018-02-19T05:38:36.232Z,22.1
2018-02-19T05:39:36.196Z,22.1
2018-02-19T05:40:36.065Z,22.1
2018-02-19T05:41:36.320Z,22.1
2018-02-19T05:42:35.955Z,22.1
2018-02-19T05:43:35.897Z,22.1
2018-02-19T05:44:35.972Z,22.1
2018-02-19T05:45:35.720Z,22.1
2018-02-19T05:46:35.679Z,22.1
2018-02-19T05:47:35.674Z,22.1
2018-02-19T05:48:35.575Z,22.2
2018-02-19T05:49:35.476Z,22.2
2018-02-19T05:50:35.384Z,22.3
2018-02-19T05:51:35.334Z,22.3
2018-02-19T05:52:35.267Z,22.3
2018-02-19T05:53:35.314Z,22.3
2018-02-19T05:54:35.425Z,22.4
2018-02-19T05:55:35.028Z,22.4
2018-02-19T05:56:35.313Z,22.4
2018-02-19T05:57:34.929Z,22.4
2018-02-19T05:58:34.911Z,22.5
2018-02-19T05:59:34.795Z,22.6
2018-02-19T06:00:34.787Z,22.6
2018-02-19T06:01:34.677Z,22.6
2018-02-19T06:02:34.577Z,22.8
2018-02-19T06:03:34.511Z,22.9
2018-02-19T06:04:34.458Z,23.1
2018-02-19T06:05:34.402Z,23.1
2018-02-19T06:06:34.332Z,23.1
2018-02-19T06:07:34.199Z,23.1
2018-02-19T06:08:34.312Z,23.2
2018-02-19T06:09:34.094Z,23.3
2018-02-19T06:10:34.077Z,23.2
2018-02-19T06:11:34.065Z,22.9
2018-02-19T06:12:33.884Z,22.8
2018-02-19T06:13:34.102Z,22.6
2018-02-19T06:14:33.860Z,22.4
2018-02-19T06:15:33.734Z,22.3
2018-02-19T06:16:33.578Z,22.1
2018-02-19T06:17:33.572Z,22
2018-02-19T06:18:33.738Z,22
2018-02-19T06:19:33.548Z,21.9
2018-02-19T06:20:33.336Z,21.9
2018-02-19T06:21:33.262Z,21.9
2018-02-19T06:22:33.309Z,21.9
2018-02-19T06:23:33.280Z,21.9
2018-02-19T06:24:33.031Z,22
2018-02-19T06:25:33.026Z,22
2018-02-19T06:26:32.984Z,22.1
2018-02-19T06:27:33.191Z,22.1
2018-02-19T06:28:32.784Z,22.1
2018-02-19T06:29:32.709Z,22.2
2018-02-19T06:30:32.986Z,22.3
2018-02-19T06:31:32.577Z,22.3
2018-02-19T06:32:32.504Z,22.3
2018-02-19T06:33:32.446Z,22.4
2018-02-19T06:34:32.690Z,22.4
2018-02-19T06:35:32.269Z,22.4
2018-02-19T06:36:32.227Z,22.4
2018-02-19T06:37:32.284Z,22.4
2018-02-19T06:38:32.061Z,22.4
2018-02-19T06:39:32.175Z,22.4
2018-02-19T06:40:32.013Z,22.3
2018-02-19T06:41:31.883Z,22.3
2018-02-19T06:42:31.924Z,22.3
2018-02-19T06:43:31.778Z,22.3
2018-02-19T06:44:31.647Z,22.3
2018-02-19T06:45:31.715Z,22.3
2018-02-19T06:46:31.536Z,22.4
2018-02-19T06:47:31.470Z,22.4
2018-02-19T06:48:31.435Z,22.5
2018-02-19T06:49:31.392Z,22.6
2018-02-19T06:50:31.230Z,22.6
2018-02-19T06:51:31.275Z,22.7
2018-02-19T06:52:31.126Z,22.8
2018-02-19T06:53:31.106Z,23
2018-02-19T06:54:31.091Z,23.1
2018-02-19T06:55:30.984Z,23.1
2018-02-19T06:56:30.995Z,23.1
2018-02-19T20:59:15.192Z,22.1
2018-02-19T21:00:15.254Z,22.1
2018-02-19T21:01:14.922Z,22.1
2018-02-19T21:02:14.946Z,22.1
2018-02-19T21:03:14.758Z,22.1
2018-02-19T21:04:14.681Z,22.1
2018-02-19T21:05:14.584Z,22.1
2018-02-19T21:06:14.526Z,22.1
2018-02-19T21:07:14.447Z,22.1
2018-02-19T21:08:14.371Z,22
2018-02-19T21:09:14.257Z,22
2018-02-19T21:10:14.231Z,22
2018-02-19T21:11:14.383Z,21.9
2018-02-19T21:12:14.052Z,21.9
2018-02-19T21:13:14.084Z,22
2018-02-19T21:14:14.002Z,22
2018-02-19T21:15:13.791Z,22
2018-02-19T21:16:13.852Z,22.1
2018-02-19T21:17:13.917Z,22.1
2018-02-19T21:18:13.695Z,22.1
2018-02-19T21:19:13.511Z,22.1
2018-02-19T21:20:13.531Z,22.1
2018-02-19T21:21:13.625Z,22.1
2018-02-19T21:22:13.272Z,22.1
2018-02-19T21:23:13.197Z,22.1
2018-02-19T21:24:13.227Z,22.1
2018-02-19T21:25:13.141Z,22.1
2018-02-19T21:26:12.927Z,22.1
2018-02-19T21:27:12.883Z,22.1
2018-02-19T21:28:12.770Z,22.1
2018-02-19T21:29:12.765Z,22.1
2018-02-19T21:30:12.643Z,22.1
2018-02-19T21:31:12.707Z,22.2
2018-02-19T21:32:12.484Z,22.2
2018-02-19T21:33:12.575Z,22.3
2018-02-19T21:34:12.335Z,22.3
2018-02-19T21:35:12.369Z,22.3
2018-02-19T21:36:12.279Z,22.3
2018-02-19T21:37:12.087Z,22.4
2018-02-19T21:38:11.987Z,22.4
2018-02-19T21:39:11.943Z,22.4
2018-02-19T21:40:11.881Z,22.4
2018-02-19T21:41:11.782Z,22.4
2018-02-19T21:42:11.703Z,22.5
2018-02-19T21:43:11.744Z,22.5
2018-02-19T21:44:11.567Z,22.5
2018-02-19T21:45:11.460Z,22.5
2018-02-19T21:46:11.410Z,22.5
2018-02-19T21:47:11.613Z,22.5
2018-02-19T21:48:11.237Z,22.5
2018-02-19T21:49:11.160Z,22.5
2018-02-19T21:50:11.051Z,22.5
2018-02-19T21:51:11.106Z,22.5
2018-02-19T21:52:10.934Z,22.5
2018-02-19T21:53:11.132Z,22.5
2018-02-19T21:54:11.061Z,22.5
2018-02-19T21:55:10.655Z,22.5
2018-02-19T21:56:10.611Z,22.4
2018-02-19T21:57:10.529Z,22.4
2018-02-19T21:58:10.449Z,22.4
2018-02-19T21:59:10.384Z,22.4
2018-02-19T22:00:10.273Z,22.4
2018-02-19T22:01:10.517Z,22.4
2018-02-19T22:02:10.438Z,22.4
2018-02-19T22:03:10.388Z,22.4
2018-02-19T22:04:10.317Z,22.3
2018-02-19T22:05:09.949Z,22.4
2018-02-19T22:06:10.159Z,22.3
2018-02-19T22:07:09.792Z,22.4
2018-02-19T22:08:09.740Z,22.4
2018-02-19T22:09:09.662Z,22.4
2018-02-19T22:10:09.603Z,22.3
2018-02-19T22:11:09.485Z,22.4
2018-02-19T22:12:09.496Z,22.4
2018-02-19T22:13:09.426Z,22.4
2018-02-19T22:14:09.388Z,22.4
2018-02-19T22:15:09.240Z,22.3
2018-02-19T22:16:09.176Z,22.3
2018-02-19T22:17:09.052Z,22.3
2018-02-19T22:18:09.080Z,22.3
2018-02-19T22:19:08.973Z,22.3
2018-02-19T22:20:08.856Z,22.3
2018-02-19T22:21:08.833Z,22.3
2018-02-19T22:22:08.700Z,22.3
2018-02-19T22:23:08.681Z,22.3
2018-02-19T22:24:08.617Z,22.3
2018-02-19T22:25:08.816Z,22.3
2018-02-19T22:26:08.458Z,22.3
2018-02-19T22:27:08.631Z,22.3
2018-02-19T22:28:08.363Z,22.3
2018-02-19T22:29:08.224Z,22.3
2018-02-19T22:30:08.432Z,22.3
2018-02-19T22:31:08.102Z,22.3
2018-02-19T22:32:08.316Z,22.3
2018-02-19T22:33:07.971Z,22.3
2018-02-19T22:34:07.909Z,22.3
2018-02-19T22:35:07.794Z,22.3
2018-02-19T22:36:08.037Z,22.3
2018-02-19T22:37:07.676Z,22.3
2018-02-19T22:38:07.900Z,22.3
2018-02-19T22:39:07.517Z,22.3
2018-02-19T22:40:07.484Z,22.3
2018-02-19T22:41:07.378Z,22.3
2018-02-19T22:42:07.313Z,22.3
2018-02-19T22:43:07.264Z,22.3
2018-02-19T22:44:07.161Z,22.3
2018-02-19T22:45:07.125Z,22.3
2018-02-19T22:46:07.040Z,22.3
2018-02-19T22:47:06.929Z,22.3
2018-02-19T22:48:06.911Z,22.3
2018-02-19T22:49:06.945Z,22.3
2018-02-19T22:50:06.769Z,22.3
2018-02-19T22:51:06.810Z,22.3
2018-02-19T22:52:06.585Z,22.3
2018-02-19T22:53:06.846Z,22.3
2018-02-19T22:54:06.503Z,22.3
2018-02-19T22:55:06.677Z,22.4
2018-02-19T22:56:06.392Z,22.4
2018-02-19T22:57:06.235Z,22.3
2018-02-19T22:58:06.143Z,22.3
2018-02-19T22:59:06.101Z,22.3
2018-02-19T23:00:06.134Z,22.3
2018-02-19T23:01:06.006Z,22.3
2018-02-19T23:02:05.920Z,22.3
2018-02-19T23:03:05.895Z,22.3
2018-02-19T23:04:05.674Z,22.3
2018-02-19T23:05:05.930Z,22.3
2018-02-19T23:06:05.518Z,22.3
2018-02-19T23:07:05.439Z,22.3
2018-02-19T23:08:05.393Z,22.3
2018-02-19T23:09:05.317Z,22.3
2018-02-19T23:10:05.205Z,22.3
2018-02-19T23:11:05.161Z,22.3
2018-02-19T23:12:05.048Z,22.3
2018-02-19T23:13:04.990Z,22.3
2018-02-19T23:14:05.033Z,22.3
2018-02-19T23:15:04.911Z,22.3
2018-02-19T23:16:05.175Z,22.3
2018-02-19T23:17:04.689Z,22.3
2018-02-19T23:18:04.708Z,22.3
2018-02-19T23:19:04.533Z,22.3
2018-02-19T23:20:04.741Z,22.3
2018-02-19T23:21:05.020Z,22.4
2018-02-19T23:22:04.517Z,22.3
2018-02-19T23:23:04.189Z,22.3
2018-02-19T23:24:04.142Z,22.3
2018-02-19T23:25:04.335Z,22.3
2018-02-19T23:26:03.986Z,22.3
2018-02-19T23:27:03.919Z,22.3
2018-02-19T23:28:03.797Z,22.3
2018-02-19T23:29:03.738Z,22.3
2018-02-19T23:30:03.676Z,22.3
2018-02-19T23:31:03.842Z,22.3
2018-02-19T23:32:03.524Z,22.3
2018-02-19T23:33:03.405Z,22.4
2018-02-19T23:34:03.479Z,22.3
2018-02-19T23:35:03.283Z,22.3
2018-02-19T23:36:03.633Z,22.3
2018-02-19T23:37:03.333Z,22.3
2018-02-19T23:38:03.156Z,22.3
2018-02-19T23:39:03.024Z,22.3
2018-02-19T23:40:02.892Z,22.3
2018-02-19T23:41:03.103Z,22.3
2018-02-19T23:42:02.701Z,22.3
2018-02-19T23:43:02.720Z,22.3
2018-02-19T23:44:02.578Z,22.3
2018-02-19T23:45:02.594Z,22.3
2018-02-19T23:46:02.435Z,22.3
2018-02-19T23:47:02.335Z,22.3
2018-02-19T23:48:02.265Z,22.3
2018-02-19T23:49:02.234Z,22.3
2018-02-19T23:50:02.132Z,22.3
2018-02-19T23:51:02.203Z,22.3
2018-02-19T23:52:02.315Z,22.3
2018-02-19T23:53:02.228Z,22.3
2018-02-19T23:54:02.135Z,22.3
2018-02-19T23:55:01.784Z,22.3
2018-02-19T23:56:01.758Z,22.3
2018-02-19T23:57:01.735Z,22.3
2018-02-19T23:58:01.671Z,22.3
2018-02-19T23:59:01.508Z,22.3
